Time;durP1;ratioP1;P1;durP2;ratioP2;P2;SDS_P1;SDS_P2;PMS_P1;PMS_P2;Temp;Humidity;BMP_temperature;BMP_pressure;BME280_temperature;BME280_humidity;BME280_pressure;Samples;Min_cycle;Max_cycle;Signal;HPM_P1;HPM_P2
2024/03/30 00:01:59;;;;;;;0.88;0.80;;;12.40;99.90;;;;;;4162168;28;20120;-59
2024/03/30 00:04:00;;;;;;;2.50;0.77;;;12.40;99.90;;;;;;4162638;28;20038;-59
2024/03/30 00:06:02;;;;;;;1.60;1.10;;;12.40;99.90;;;;;;4162128;28;20120;-59
2024/03/30 00:08:03;;;;;;;1.15;0.98;;;12.40;99.90;;;;;;4163191;28;20030;-59
2024/03/30 00:10:04;;;;;;;2.22;1.35;;;12.40;99.90;;;;;;4162197;28;20473;-60
2024/03/30 00:12:05;;;;;;;3.85;1.00;;;12.40;99.90;;;;;;4161991;28;20083;-59
2024/03/30 00:14:05;;;;;;;1.58;0.95;;;12.40;99.90;;;;;;4162411;28;20033;-60
2024/03/30 00:16:07;;;;;;;2.00;1.00;;;12.40;99.90;;;;;;4161623;28;20928;-59
2024/03/30 00:18:08;;;;;;;1.00;0.90;;;12.40;99.90;;;;;;4194357;28;20166;-59
2024/03/30 00:20:09;;;;;;;1.33;1.00;;;12.40;99.90;;;;;;4162166;28;20033;-61
2024/03/30 00:22:09;;;;;;;2.00;0.90;;;12.40;99.90;;;;;;4162550;28;20040;-64
2024/03/30 00:24:10;;;;;;;1.40;0.63;;;12.50;99.90;;;;;;4162137;28;20490;-60
2024/03/30 00:26:10;;;;;;;1.58;1.00;;;12.40;99.90;;;;;;4160819;28;20026;-60
2024/03/30 00:28:11;;;;;;;1.65;1.00;;;12.40;99.90;;;;;;4162378;28;20124;-60
2024/03/30 00:30:11;;;;;;;1.15;1.00;;;12.40;99.90;;;;;;4161498;28;20038;-60
2024/03/30 00:32:12;;;;;;;1.15;0.93;;;12.40;99.90;;;;;;4161814;28;20083;-60
2024/03/30 00:34:13;;;;;;;1.40;0.80;;;12.40;99.90;;;;;;4162385;28;20411;-60
2024/03/30 00:36:14;;;;;;;1.00;0.90;;;12.40;99.90;;;;;;4160235;28;20437;-59
2024/03/30 00:38:14;;;;;;;2.55;1.08;;;12.50;99.90;;;;;;4162487;28;20034;-60
2024/03/30 00:40:15;;;;;;;1.02;0.80;;;12.40;99.90;;;;;;4157720;28;20033;-59
2024/03/30 00:42:16;;;;;;;1.45;1.15;;;12.40;99.90;;;;;;4153496;28;20034;-59
2024/03/30 00:44:17;;;;;;;2.10;0.88;;;12.40;99.90;;;;;;4155733;28;20054;-59
2024/03/30 00:46:17;;;;;;;1.63;1.10;;;12.40;99.90;;;;;;4154347;28;20036;-60
2024/03/30 00:48:18;;;;;;;1.42;1.00;;;12.40;99.90;;;;;;4161431;28;20025;-61
2024/03/30 00:50:19;;;;;;;1.70;1.00;;;12.40;99.90;;;;;;4161332;28;20037;-60
2024/03/30 00:52:19;;;;;;;1.00;0.85;;;12.40;99.90;;;;;;4161749;28;20054;-59
2024/03/30 00:54:20;;;;;;;1.40;0.80;;;12.40;99.90;;;;;;4158894;28;20091;-60
2024/03/30 00:56:20;;;;;;;1.77;1.00;;;12.40;99.90;;;;;;4158061;28;20046;-60
2024/03/30 00:58:21;;;;;;;1.55;1.05;;;12.40;99.90;;;;;;4157705;28;20099;-60
2024/03/30 01:00:22;;;;;;;1.83;0.93;;;12.40;99.90;;;;;;4159164;28;20108;-60
2024/03/30 01:02:22;;;;;;;2.03;0.90;;;12.40;99.90;;;;;;4161718;28;20025;-59
2024/03/30 01:04:23;;;;;;;2.08;1.10;;;12.50;99.90;;;;;;4161602;28;20520;-66
2024/03/30 01:06:24;;;;;;;2.13;1.17;;;12.50;99.90;;;;;;4160873;28;20517;-65
2024/03/30 01:08:25;;;;;;;3.75;1.50;;;12.50;99.90;;;;;;4161824;28;20039;-65
2024/03/30 01:10:25;;;;;;;3.33;1.60;;;12.50;99.90;;;;;;4161084;28;20045;-65
2024/03/30 01:12:26;;;;;;;3.03;1.27;;;12.50;99.90;;;;;;4159520;28;20025;-66
2024/03/30 01:14:27;;;;;;;2.20;1.58;;;12.40;99.90;;;;;;4161452;28;20029;-65
2024/03/30 01:16:28;;;;;;;2.58;1.70;;;12.50;99.90;;;;;;4160915;28;20398;-66
2024/03/30 01:18:29;;;;;;;2.53;1.65;;;12.50;99.90;;;;;;4160253;28;20517;-66
2024/03/30 01:20:30;;;;;;;3.47;1.65;;;12.50;99.90;;;;;;4160918;28;20041;-66
2024/03/30 01:22:32;;;;;;;2.92;2.08;;;12.50;99.90;;;;;;4161864;28;20038;-66
2024/03/30 01:24:33;;;;;;;3.88;2.38;;;12.40;99.90;;;;;;4161300;28;20109;-66
2024/03/30 01:26:38;;;;;;;4.00;2.83;;;12.40;99.90;;;;;;4159874;28;20493;-66
2024/03/30 01:28:43;;;;;;;5.53;3.03;;;12.40;99.90;;;;;;4157640;28;21880;-66
2024/03/30 01:30:44;;;;;;;4.07;2.88;;;12.40;99.90;;;;;;4160757;28;20032;-66
2024/03/30 01:32:45;;;;;;;4.60;3.22;;;12.40;99.90;;;;;;4161960;28;20029;-66
2024/03/30 01:34:45;;;;;;;4.40;3.33;;;12.40;99.90;;;;;;4161667;28;20466;-66
2024/03/30 01:36:46;;;;;;;4.55;3.00;;;12.40;99.90;;;;;;4160610;28;20029;-66
2024/03/30 01:38:47;;;;;;;3.90;2.80;;;12.40;99.90;;;;;;4158904;28;20490;-66
2024/03/30 01:40:49;;;;;;;4.53;2.80;;;12.40;99.90;;;;;;4160272;28;20433;-66
2024/03/30 01:42:50;;;;;;;4.82;3.00;;;12.40;99.90;;;;;;4143435;28;20095;-66
2024/03/30 01:44:50;;;;;;;4.63;3.40;;;12.40;99.90;;;;;;4157609;28;20494;-66
2024/03/30 01:46:52;;;;;;;4.43;2.80;;;12.40;99.90;;;;;;4160056;28;20030;-66
2024/03/30 01:48:53;;;;;;;5.55;3.17;;;12.40;99.90;;;;;;4161167;28;20041;-66
2024/03/30 01:50:54;;;;;;;4.30;3.15;;;12.40;99.90;;;;;;4152188;28;20490;-66
2024/03/30 01:52:55;;;;;;;5.03;2.92;;;12.40;99.90;;;;;;4161491;28;20094;-66
2024/03/30 01:54:56;;;;;;;3.58;2.85;;;12.40;99.90;;;;;;4160952;28;20029;-66
2024/03/30 01:56:58;;;;;;;3.60;2.55;;;12.40;99.90;;;;;;4157349;28;20030;-66
2024/03/30 01:59:02;;;;;;;4.63;3.25;;;12.40;99.90;;;;;;4157514;28;20025;-65
2024/03/30 02:01:03;;;;;;;5.43;3.58;;;12.40;99.90;;;;;;4159106;28;20045;-66
2024/03/30 02:03:04;;;;;;;5.10;3.22;;;12.40;99.90;;;;;;4161507;28;20034;-66
2024/03/30 02:05:05;;;;;;;4.03;2.90;;;12.30;99.90;;;;;;4160860;28;20120;-66
2024/03/30 02:07:06;;;;;;;6.60;2.95;;;12.30;99.90;;;;;;4160767;28;20037;-66
2024/03/30 02:09:10;;;;;;;3.30;2.88;;;12.30;99.90;;;;;;4161807;28;20030;-66
2024/03/30 02:11:13;;;;;;;5.53;2.72;;;12.30;99.90;;;;;;4160848;28;20038;-66
2024/03/30 02:13:15;;;;;;;3.72;2.83;;;12.30;99.90;;;;;;4161205;28;20139;-65
2024/03/30 02:15:15;;;;;;;3.40;2.83;;;12.30;99.90;;;;;;4160362;28;20030;-60
2024/03/30 02:17:16;;;;;;;4.63;2.75;;;12.30;99.90;;;;;;4161486;28;20045;-60
2024/03/30 02:19:19;;;;;;;3.47;2.47;;;12.20;99.90;;;;;;4161287;28;20030;-60
2024/03/30 02:21:19;;;;;;;;;;;12.20;99.90;;;;;;4157846;28;20044;-65
2024/03/30 02:23:20;;;;;;;4.57;2.90;;;12.20;99.90;;;;;;4161832;28;19912;-60
2024/03/30 02:25:22;;;;;;;3.97;3.03;;;12.20;99.90;;;;;;4162055;28;20072;-60
2024/03/30 02:27:22;;;;;;;4.55;2.88;;;12.20;99.90;;;;;;4164468;28;20068;-59
2024/03/30 02:29:25;;;;;;;4.07;3.00;;;12.20;99.90;;;;;;4164482;28;20425;-59
2024/03/30 02:31:26;;;;;;;3.83;2.75;;;12.20;99.90;;;;;;4160646;28;20501;-59
2024/03/30 02:33:27;;;;;;;3.22;2.83;;;12.20;99.90;;;;;;4164199;28;20091;-59
2024/03/30 02:35:28;;;;;;;3.00;2.45;;;12.20;99.90;;;;;;4163643;28;20397;-59
2024/03/30 02:37:29;;;;;;;3.58;2.65;;;12.20;99.90;;;;;;4164068;28;20064;-60
2024/03/30 02:39:29;;;;;;;4.25;3.30;;;12.20;99.90;;;;;;4163917;28;20398;-59
2024/03/30 02:41:30;;;;;;;4.28;2.75;;;12.20;99.90;;;;;;4163755;28;20114;-59
2024/03/30 02:43:30;;;;;;;3.28;2.80;;;12.20;99.90;;;;;;4164208;28;20048;-59
2024/03/30 02:45:31;;;;;;;3.38;2.72;;;12.20;99.90;;;;;;4163479;28;20034;-59
2024/03/30 02:47:32;;;;;;;4.35;3.33;;;12.20;99.90;;;;;;4164408;28;20063;-59
2024/03/30 02:49:32;;;;;;;3.30;2.53;;;12.20;99.90;;;;;;4163950;28;20115;-59
2024/03/30 02:51:33;;;;;;;3.80;3.22;;;12.20;99.90;;;;;;4163115;28;20135;-59
2024/03/30 02:53:33;;;;;;;4.13;3.28;;;12.20;99.90;;;;;;4164009;28;20044;-59
2024/03/30 02:55:34;;;;;;;4.68;3.13;;;12.20;99.90;;;;;;4159640;28;20041;-59
2024/03/30 02:57:34;;;;;;;5.38;3.25;;;12.20;99.90;;;;;;4164020;28;20506;-59
2024/03/30 02:59:35;;;;;;;5.22;3.25;;;12.20;99.90;;;;;;4163828;28;20032;-59
2024/03/30 03:01:37;;;;;;;4.15;3.33;;;12.20;99.90;;;;;;4163249;28;20057;-59
2024/03/30 03:03:38;;;;;;;5.22;3.38;;;12.20;99.90;;;;;;4162453;28;20064;-59
2024/03/30 03:05:38;;;;;;;4.03;3.20;;;12.10;99.90;;;;;;4163297;28;20426;-59
2024/03/30 03:07:39;;;;;;;4.10;3.33;;;12.10;99.90;;;;;;4163700;28;20094;-59
2024/03/30 03:09:40;;;;;;;4.18;3.42;;;12.00;99.90;;;;;;4163617;28;20042;-59
2024/03/30 03:11:41;;;;;;;4.28;3.40;;;12.00;99.90;;;;;;4163130;28;20029;-59
2024/03/30 03:13:41;;;;;;;4.82;3.67;;;12.10;99.90;;;;;;4164010;28;20052;-59
2024/03/30 03:15:42;;;;;;;5.15;3.60;;;12.00;99.90;;;;;;4162775;28;20072;-59
2024/03/30 03:17:42;;;;;;;5.10;3.97;;;12.00;99.90;;;;;;4163382;28;20033;-62
2024/03/30 03:19:43;;;;;;;4.90;2.95;;;12.00;99.90;;;;;;4163353;28;20026;-60
2024/03/30 03:21:44;;;;;;;5.05;3.40;;;11.90;99.90;;;;;;4157810;28;20073;-59
2024/03/30 03:23:44;;;;;;;4.32;3.40;;;12.00;99.90;;;;;;4160416;28;20545;-66
2024/03/30 03:25:45;;;;;;;5.10;3.20;;;12.00;99.90;;;;;;4157790;28;20026;-59
2024/03/30 03:27:45;;;;;;;5.28;2.95;;;11.90;99.90;;;;;;4158726;28;20034;-60
2024/03/30 03:29:46;;;;;;;4.15;3.38;;;12.00;99.90;;;;;;4161450;28;20133;-60
2024/03/30 03:31:46;;;;;;;6.22;3.63;;;12.00;99.90;;;;;;4163020;28;20026;-59
2024/03/30 03:33:48;;;;;;;4.90;3.53;;;11.90;99.90;;;;;;4162283;28;20540;-60
2024/03/30 03:35:49;;;;;;;4.67;2.97;;;11.90;99.90;;;;;;4162334;28;20025;-60
2024/03/30 03:37:50;;;;;;;4.68;3.38;;;11.80;99.90;;;;;;4161596;28;20332;-60
2024/03/30 03:39:50;;;;;;;4.28;2.97;;;11.80;99.90;;;;;;4162508;28;20036;-64
2024/03/30 03:41:51;;;;;;;5.55;3.78;;;11.70;99.90;;;;;;4162786;28;20034;-60
2024/03/30 03:43:51;;;;;;;6.85;3.88;;;11.70;99.90;;;;;;4162526;28;20075;-60
2024/03/30 03:45:52;;;;;;;7.15;4.40;;;11.70;99.90;;;;;;4157525;28;20037;-60
2024/03/30 03:47:52;;;;;;;8.45;4.35;;;11.70;99.90;;;;;;4162726;28;20030;-59
2024/03/30 03:49:53;;;;;;;5.97;3.92;;;11.60;99.90;;;;;;4145328;28;20141;-59
2024/03/30 03:51:55;;;;;;;6.88;4.40;;;11.60;99.90;;;;;;4162815;28;20171;-59
2024/03/30 03:53:56;;;;;;;6.93;4.22;;;11.60;99.90;;;;;;4159978;28;20025;-59
2024/03/30 03:55:57;;;;;;;5.53;3.38;;;11.60;99.90;;;;;;4162121;28;20514;-59
2024/03/30 03:57:57;;;;;;;6.28;3.75;;;11.60;99.90;;;;;;4162709;28;20486;-59
2024/03/30 03:59:58;;;;;;;6.05;3.78;;;11.70;99.90;;;;;;4163066;28;20033;-60
2024/03/30 04:01:58;;;;;;;6.35;4.20;;;11.70;99.90;;;;;;4162278;28;20482;-59
2024/03/30 04:03:59;;;;;;;5.57;4.10;;;11.70;99.90;;;;;;4161578;28;20068;-59
2024/03/30 04:06:09;;;;;;;5.85;3.88;;;11.70;99.90;;;;;;4161962;28;20037;-60
2024/03/30 04:08:10;;;;;;;5.95;4.00;;;11.70;99.90;;;;;;4162302;28;20136;-59
2024/03/30 04:10:14;;;;;;;6.13;3.90;;;11.70;99.90;;;;;;4162674;28;20038;-61
2024/03/30 04:12:14;;;;;;;5.10;3.53;;;11.80;99.90;;;;;;4162125;28;20466;-59
2024/03/30 04:14:15;;;;;;;7.05;4.00;;;11.80;99.90;;;;;;4162971;28;20025;-59
2024/03/30 04:16:16;;;;;;;4.95;3.92;;;11.70;99.90;;;;;;4161450;28;20030;-60
2024/03/30 04:18:16;;;;;;;5.32;3.75;;;11.80;99.90;;;;;;4162762;28;20022;-60
2024/03/30 04:20:17;;;;;;;5.93;3.70;;;11.80;99.90;;;;;;4161814;28;20094;-59
2024/03/30 04:22:18;;;;;;;5.95;3.88;;;11.80;99.90;;;;;;4162464;28;20026;-59
2024/03/30 04:24:19;;;;;;;5.63;4.07;;;11.70;99.90;;;;;;4162724;28;20053;-59
2024/03/30 04:26:19;;;;;;;5.45;3.88;;;11.60;99.90;;;;;;4161329;28;20447;-59
2024/03/30 04:28:20;;;;;;;5.68;4.00;;;11.60;99.90;;;;;;4162328;28;20036;-59
2024/03/30 04:30:22;;;;;;;5.85;4.03;;;11.60;99.90;;;;;;4154999;28;20045;-64
2024/03/30 04:32:23;;;;;;;6.18;3.65;;;11.50;99.90;;;;;;4161291;28;20036;-60
2024/03/30 04:34:25;;;;;;;5.00;4.03;;;11.60;99.90;;;;;;4162522;28;20045;-70
2024/03/30 04:36:26;;;;;;;4.63;3.35;;;11.60;99.90;;;;;;4161512;28;20052;-69
2024/03/30 04:38:28;;;;;;;5.13;3.78;;;11.60;99.90;;;;;;4161516;28;20509;-69
2024/03/30 04:40:28;;;;;;;6.13;3.53;;;11.60;99.90;;;;;;4161280;28;20034;-69
2024/03/30 04:42:29;;;;;;;5.85;3.80;;;11.60;99.90;;;;;;4160801;28;20076;-69
2024/03/30 04:44:30;;;;;;;5.93;3.80;;;11.60;99.90;;;;;;4159360;28;20033;-69
2024/03/30 04:46:30;;;;;;;4.78;3.67;;;11.60;99.90;;;;;;4160595;28;20475;-69
2024/03/30 04:48:31;;;;;;;6.63;3.50;;;11.50;99.90;;;;;;4161817;28;20025;-69
2024/03/30 04:50:31;;;;;;;4.30;3.63;;;11.60;99.90;;;;;;4161548;28;20041;-69
2024/03/30 04:52:32;;;;;;;6.75;3.97;;;11.60;99.90;;;;;;4160194;28;20143;-69
2024/03/30 04:54:33;;;;;;;5.72;3.85;;;11.60;99.90;;;;;;4161740;28;20413;-69
2024/03/30 04:56:34;;;;;;;5.47;3.85;;;11.60;99.90;;;;;;4158950;28;20519;-69
2024/03/30 04:58:34;;;;;;;5.15;3.70;;;11.50;99.90;;;;;;4158594;28;20121;-69
2024/03/30 05:00:35;;;;;;;7.88;3.85;;;11.60;99.90;;;;;;4188035;28;20025;-59
2024/03/30 05:02:35;;;;;;;7.53;4.00;;;11.60;99.90;;;;;;4158044;28;20129;-59
2024/03/30 05:04:36;;;;;;;5.88;3.90;;;11.50;99.90;;;;;;4158922;28;20117;-59
2024/03/30 05:06:36;;;;;;;5.57;4.07;;;11.50;99.90;;;;;;4157119;28;20092;-59
2024/03/30 05:08:37;;;;;;;5.20;3.63;;;11.50;99.90;;;;;;4157122;28;20438;-59
2024/03/30 05:10:38;;;;;;;5.70;3.92;;;11.50;99.90;;;;;;4156562;28;20049;-59
2024/03/30 05:12:40;;;;;;;6.25;3.92;;;11.50;99.90;;;;;;4158973;28;20033;-59
2024/03/30 05:14:40;;;;;;;5.85;3.67;;;11.50;99.90;;;;;;4157232;28;20394;-59
2024/03/30 05:16:41;;;;;;;5.97;3.97;;;11.50;99.90;;;;;;4157062;28;20045;-59
2024/03/30 05:18:41;;;;;;;4.95;3.70;;;11.50;99.90;;;;;;4159503;28;20037;-59
2024/03/30 05:20:49;;;;;;;7.57;3.50;;;11.50;99.90;;;;;;4155021;28;20569;-59
2024/03/30 05:22:49;;;;;;;4.97;3.22;;;11.50;99.90;;;;;;4158115;28;20460;-59
2024/03/30 05:24:50;;;;;;;5.80;3.55;;;11.50;99.90;;;;;;4157901;28;20037;-59
2024/03/30 05:26:50;;;;;;;5.40;3.83;;;11.50;99.90;;;;;;4157294;28;20025;-60
2024/03/30 05:28:51;;;;;;;4.60;3.30;;;11.50;99.90;;;;;;4158921;28;20148;-59
2024/03/30 05:30:53;;;;;;;5.40;3.83;;;11.50;99.90;;;;;;4157845;28;20512;-64
2024/03/30 05:32:53;;;;;;;8.77;4.03;;;11.50;99.90;;;;;;4158088;28;20482;-60
2024/03/30 05:34:54;;;;;;;4.65;3.45;;;11.40;99.90;;;;;;4155178;28;20029;-60
2024/03/30 05:36:54;;;;;;;6.32;3.45;;;11.40;99.90;;;;;;4152928;28;20409;-59
2024/03/30 05:38:55;;;;;;;7.38;3.70;;;11.40;99.90;;;;;;4158396;28;20038;-60
2024/03/30 05:40:56;;;;;;;5.03;3.38;;;11.40;99.90;;;;;;4156238;28;20033;-59
2024/03/30 05:42:56;;;;;;;6.10;3.53;;;11.40;99.90;;;;;;4155040;28;20037;-59
2024/03/30 05:44:57;;;;;;;4.85;3.03;;;11.40;99.90;;;;;;4157176;28;20121;-63
2024/03/30 05:46:58;;;;;;;4.50;3.45;;;11.30;99.90;;;;;;4156896;28;20171;-64
2024/03/30 05:48:58;;;;;;;5.82;3.30;;;11.30;99.90;;;;;;4155921;28;20041;-63
2024/03/30 05:50:59;;;;;;;4.80;2.78;;;11.30;99.90;;;;;;4156205;28;20116;-59
2024/03/30 05:53:01;;;;;;;5.55;3.58;;;11.30;99.90;;;;;;4160411;28;20061;-59
2024/03/30 05:55:03;;;;;;;5.72;3.53;;;11.30;99.90;;;;;;4157259;28;20036;-60
2024/03/30 05:57:03;;;;;;;4.65;2.70;;;11.30;99.90;;;;;;4149115;28;20026;-60
2024/03/30 05:59:04;;;;;;;6.32;3.65;;;11.30;99.90;;;;;;4160176;28;20041;-59
2024/03/30 06:01:05;;;;;;;4.45;3.05;;;11.20;99.90;;;;;;4160577;28;20071;-59
2024/03/30 06:03:06;;;;;;;4.55;2.97;;;11.20;99.90;;;;;;4153847;28;20081;-59
2024/03/30 06:05:07;;;;;;;5.63;3.13;;;11.20;99.90;;;;;;4158548;28;20025;-60
2024/03/30 06:07:11;;;;;;;4.25;3.25;;;11.20;99.90;;;;;;4162915;28;20447;-59
2024/03/30 06:09:11;;;;;;;7.32;3.47;;;11.30;99.90;;;;;;4163617;28;20025;-59
2024/03/30 06:11:12;;;;;;;5.25;3.30;;;11.30;99.90;;;;;;4159994;28;20041;-59
2024/03/30 06:13:12;;;;;;;4.90;3.13;;;11.30;99.90;;;;;;4162905;28;20041;-60
2024/03/30 06:15:13;;;;;;;5.60;3.20;;;11.30;99.90;;;;;;4168823;28;20030;-60
2024/03/30 06:17:14;;;;;;;5.10;3.40;;;11.30;99.90;;;;;;4161052;28;20037;-60
2024/03/30 06:19:15;;;;;;;6.60;3.03;;;11.20;99.90;;;;;;4162033;28;20045;-65
2024/03/30 06:21:15;;;;;;;6.35;3.58;;;11.20;99.90;;;;;;4158704;28;20044;-61
2024/03/30 06:23:16;;;;;;;4.72;3.28;;;11.20;99.90;;;;;;4156349;28;20056;-60
2024/03/30 06:25:16;;;;;;;7.18;3.13;;;11.20;99.90;;;;;;4161096;28;20095;-60
2024/03/30 06:27:17;;;;;;;4.82;2.85;;;11.20;99.90;;;;;;4161836;28;20033;-59
2024/03/30 06:29:18;;;;;;;3.40;2.50;;;11.20;99.90;;;;;;4162944;28;20390;-60
2024/03/30 06:31:18;;;;;;;5.85;3.30;;;11.30;99.90;;;;;;4159992;28;20095;-59
2024/03/30 06:33:19;;;;;;;3.42;2.35;;;11.30;99.90;;;;;;4151474;28;20035;-60
2024/03/30 06:35:19;;;;;;;4.43;2.65;;;11.40;99.90;;;;;;4159960;28;20486;-59
2024/03/30 06:37:20;;;;;;;5.60;3.15;;;11.40;99.90;;;;;;4161794;28;20095;-59
2024/03/30 06:39:21;;;;;;;5.05;3.00;;;11.40;99.90;;;;;;4163962;28;20033;-59
2024/03/30 06:43:41;;;;;;;4.13;2.85;;;11.50;99.90;;;;;;4159778;28;20131;-59
2024/03/30 06:45:41;;;;;;;5.53;2.90;;;11.50;99.90;;;;;;4162537;28;20022;-59
2024/03/30 06:47:42;;;;;;;3.28;2.85;;;11.60;99.90;;;;;;4164689;28;20382;-59
2024/03/30 06:49:42;;;;;;;4.93;3.03;;;11.60;99.90;;;;;;4164091;28;20091;-59
2024/03/30 06:51:43;;;;;;;6.93;3.53;;;11.60;99.90;;;;;;4162438;28;20021;-59
2024/03/30 06:53:43;;;;;;;6.28;3.28;;;11.60;99.90;;;;;;4164469;28;20025;-70
2024/03/30 06:55:44;;;;;;;4.25;3.10;;;11.60;99.90;;;;;;4162186;28;20033;-63
2024/03/30 06:57:45;;;;;;;4.78;3.17;;;11.70;99.90;;;;;;4146321;28;20030;-63
2024/03/30 06:59:46;;;;;;;5.18;3.10;;;11.70;99.90;;;;;;4151555;28;20450;-65
2024/03/30 07:01:47;;;;;;;3.92;3.00;;;11.70;99.90;;;;;;4161699;28;20099;-63
2024/03/30 07:03:48;;;;;;;6.55;3.22;;;11.80;99.90;;;;;;4159987;28;20033;-69
2024/03/30 07:05:48;;;;;;;7.30;3.33;;;11.80;99.90;;;;;;4160164;28;20060;-70
2024/03/30 07:07:49;;;;;;;7.35;3.90;;;11.80;99.90;;;;;;4162876;28;20477;-59
2024/03/30 07:09:50;;;;;;;5.68;3.35;;;11.80;99.90;;;;;;4155422;28;20057;-70
2024/03/30 07:11:50;;;;;;;5.20;3.40;;;11.80;99.90;;;;;;4155638;28;20030;-64
2024/03/30 07:13:51;;;;;;;4.13;2.80;;;11.80;99.90;;;;;;4162941;28;20045;-65
2024/03/30 07:15:52;;;;;;;5.05;2.83;;;11.80;99.90;;;;;;4160142;28;20029;-65
2024/03/30 07:17:53;;;;;;;4.97;3.42;;;11.90;99.90;;;;;;4162408;28;20371;-70
2024/03/30 07:19:54;;;;;;;5.40;3.38;;;11.90;99.90;;;;;;4160201;28;20029;-59
2024/03/30 07:21:54;;;;;;;5.30;3.22;;;11.90;99.90;;;;;;4161722;28;20109;-73
2024/03/30 07:23:55;;;;;;;4.20;3.20;;;11.90;99.90;;;;;;4161560;28;20033;-65
2024/03/30 07:25:55;;;;;;;7.05;4.15;;;12.00;99.90;;;;;;4166276;28;20028;-65
2024/03/30 07:27:56;;;;;;;5.22;3.50;;;11.90;99.90;;;;;;4162138;28;20473;-59
2024/03/30 07:29:57;;;;;;;4.72;3.72;;;12.00;99.90;;;;;;4160525;28;20394;-59
2024/03/30 07:32:00;;;;;;;7.38;3.95;;;12.00;99.90;;;;;;4162436;28;20057;-59
2024/03/30 07:34:01;;;;;;;4.32;3.22;;;12.00;99.90;;;;;;4163807;28;20109;-59
2024/03/30 07:36:03;;;;;;;6.40;3.72;;;12.00;99.90;;;;;;4161834;28;20392;-59
2024/03/30 07:38:04;;;;;;;5.85;3.40;;;12.10;99.90;;;;;;4162701;28;20570;-59
2024/03/30 07:40:05;;;;;;;4.22;3.42;;;12.10;99.90;;;;;;4163895;28;20110;-60
2024/03/30 07:42:07;;;;;;;7.35;4.05;;;12.10;99.90;;;;;;4163703;28;20041;-59
2024/03/30 07:44:07;;;;;;;9.32;3.78;;;12.10;99.90;;;;;;4163918;28;20037;-59
2024/03/30 07:46:08;;;;;;;4.57;3.35;;;12.10;99.90;;;;;;4163515;28;20026;-59
2024/03/30 07:48:09;;;;;;;5.57;3.25;;;12.20;99.90;;;;;;4162354;28;20029;-59
2024/03/30 07:50:09;;;;;;;5.75;3.80;;;12.10;99.90;;;;;;4163380;28;20144;-60
2024/03/30 07:52:11;;;;;;;5.82;3.55;;;12.20;99.90;;;;;;4159017;28;20482;-59
2024/03/30 07:54:11;;;;;;;8.55;4.90;;;12.20;99.90;;;;;;4163829;28;20048;-59
2024/03/30 07:56:12;;;;;;;7.07;4.32;;;12.20;99.90;;;;;;4163101;28;20026;-59
2024/03/30 07:58:13;;;;;;;6.65;3.88;;;12.20;99.90;;;;;;4163429;28;20509;-59
2024/03/30 08:00:14;;;;;;;6.85;4.53;;;12.20;99.90;;;;;;4162957;28;20034;-59
2024/03/30 08:02:15;;;;;;;8.53;4.10;;;12.20;99.90;;;;;;4163427;28;20132;-59
2024/03/30 08:04:16;;;;;;;7.13;4.20;;;12.20;99.90;;;;;;4163640;28;20732;-60
2024/03/30 08:06:17;;;;;;;8.63;4.35;;;12.20;99.90;;;;;;4160907;28;20120;-60
2024/03/30 08:08:17;;;;;;;9.13;4.00;;;12.20;99.90;;;;;;4163355;28;20026;-59
2024/03/30 08:10:18;;;;;;;7.40;3.70;;;12.20;99.90;;;;;;4162801;28;20364;-60
2024/03/30 08:12:19;;;;;;;6.90;3.60;;;12.20;99.90;;;;;;4163166;28;20037;-59
2024/03/30 08:14:19;;;;;;;5.28;3.38;;;12.30;99.90;;;;;;4163189;28;20069;-59
2024/03/30 08:16:20;;;;;;;10.38;3.72;;;12.30;99.90;;;;;;4161352;28;20120;-60
2024/03/30 08:18:21;;;;;;;9.00;3.55;;;12.30;99.90;;;;;;4162500;28;20033;-59
2024/03/30 08:20:21;;;;;;;8.23;3.53;;;12.30;99.90;;;;;;4156920;28;20049;-59
2024/03/30 08:22:22;;;;;;;5.20;3.30;;;12.40;99.90;;;;;;4163379;28;20030;-59
2024/03/30 08:24:23;;;;;;;5.35;3.05;;;12.40;99.90;;;;;;4163208;28;20486;-59
2024/03/30 08:26:23;;;;;;;5.13;3.15;;;12.50;99.90;;;;;;4161190;28;20355;-59
2024/03/30 08:28:24;;;;;;;8.95;3.97;;;12.50;99.90;;;;;;4163311;28;20038;-59
2024/03/30 08:30:25;;;;;;;6.50;3.28;;;12.50;99.90;;;;;;4162522;28;20033;-59
2024/03/30 08:32:25;;;;;;;8.68;3.40;;;12.60;99.90;;;;;;4163128;28;20041;-59
2024/03/30 08:34:26;;;;;;;6.68;2.92;;;12.70;99.90;;;;;;4162861;28;20119;-59
2024/03/30 08:36:26;;;;;;;5.13;2.65;;;12.80;99.90;;;;;;4162528;28;20029;-59
2024/03/30 08:38:27;;;;;;;5.82;2.75;;;12.90;99.90;;;;;;4162972;28;20060;-59
2024/03/30 08:40:28;;;;;;;6.43;3.08;;;13.00;99.90;;;;;;4162594;28;20045;-59
2024/03/30 08:42:28;;;;;;;4.18;2.58;;;13.10;99.90;;;;;;4163019;28;20504;-59
2024/03/30 08:44:29;;;;;;;4.97;2.80;;;13.10;99.90;;;;;;4144740;28;20117;-59
2024/03/30 08:46:29;;;;;;;6.60;2.92;;;13.20;99.90;;;;;;4160761;28;20040;-59
2024/03/30 08:48:33;;;;;;;6.10;2.72;;;13.20;99.90;;;;;;4161953;28;20033;-64
2024/03/30 08:50:34;;;;;;;4.35;2.42;;;13.30;99.90;;;;;;4162186;28;20040;-59
2024/03/30 08:52:35;;;;;;;6.28;3.03;;;13.30;99.90;;;;;;4162834;28;20401;-59
2024/03/30 08:54:35;;;;;;;7.68;2.90;;;13.30;99.90;;;;;;4162470;28;20112;-58
2024/03/30 08:56:37;;;;;;;5.50;2.97;;;13.40;99.90;;;;;;4162054;28;20033;-58
2024/03/30 08:58:38;;;;;;;4.73;2.43;;;13.40;99.90;;;;;;4162758;28;20060;-59
2024/03/30 09:00:38;;;;;;;10.50;3.15;;;13.50;99.90;;;;;;4162251;28;20252;-59
2024/03/30 09:02:42;;;;;;;4.72;2.65;;;13.50;99.90;;;;;;4162905;28;20037;-59
2024/03/30 09:04:42;;;;;;;6.00;2.75;;;13.50;99.90;;;;;;4162804;28;20033;-59
2024/03/30 09:06:43;;;;;;;5.82;2.55;;;13.50;99.90;;;;;;4161827;28;20509;-59
2024/03/30 09:08:44;;;;;;;5.03;2.63;;;13.60;99.90;;;;;;4162665;28;20442;-59
2024/03/30 09:10:45;;;;;;;5.70;2.78;;;13.60;99.90;;;;;;4162167;28;20436;-59
2024/03/30 09:12:46;;;;;;;4.82;2.88;;;13.60;99.90;;;;;;4162669;28;20030;-59
2024/03/30 09:14:46;;;;;;;6.75;2.50;;;13.60;99.90;;;;;;4162636;28;20029;-72
2024/03/30 09:16:47;;;;;;;4.95;2.33;;;13.60;99.90;;;;;;4157668;28;20585;-69
2024/03/30 09:18:47;;;;;;;8.35;2.60;;;13.70;99.90;;;;;;4156524;28;20029;-72
2024/03/30 09:20:48;;;;;;;5.32;2.10;;;13.70;99.90;;;;;;4162009;28;20549;-72
2024/03/30 09:22:49;;;;;;;8.15;2.65;;;13.80;99.90;;;;;;4161310;28;20041;-72
2024/03/30 09:24:51;;;;;;;6.45;2.17;;;13.90;99.90;;;;;;4157869;28;20040;-72
2024/03/30 09:26:52;;;;;;;5.88;2.03;;;14.00;99.90;;;;;;4157354;28;20029;-72
2024/03/30 09:28:52;;;;;;;6.03;2.38;;;14.10;99.90;;;;;;4158193;28;20482;-72
2024/03/30 09:30:53;;;;;;;5.57;2.00;;;14.10;99.90;;;;;;4158791;28;20041;-72
2024/03/30 09:32:53;;;;;;;13.32;3.00;;;14.10;99.90;;;;;;4161890;28;20364;-72
2024/03/30 09:34:54;;;;;;;10.35;2.13;;;14.20;99.90;;;;;;4161151;28;20412;-72
2024/03/30 09:36:55;;;;;;;7.10;2.20;;;14.20;99.90;;;;;;4156701;28;20033;-72
2024/03/30 09:38:55;;;;;;;9.50;2.25;;;14.30;99.90;;;;;;4162380;28;20052;-72
2024/03/30 09:41:01;;;;;;;7.13;1.88;;;14.30;99.90;;;;;;4161785;28;20038;-72
2024/03/30 09:43:02;;;;;;;13.50;2.38;;;14.40;99.90;;;;;;4162100;28;20041;-71
2024/03/30 09:45:04;;;;;;;9.73;1.98;;;14.40;99.90;;;;;;4162173;28;20033;-73
2024/03/30 09:47:06;;;;;;;17.30;2.80;;;14.50;99.90;;;;;;4161787;28;20037;-72
2024/03/30 09:49:08;;;;;;;;;;;14.50;99.90;;;;;;4162597;28;20084;-72
2024/03/30 09:51:10;;;;;;;11.00;2.35;;;14.60;99.90;;;;;;4161586;28;19916;-72
2024/03/30 09:53:13;;;;;;;12.13;2.60;;;14.70;99.90;;;;;;4162327;28;20033;-72
2024/03/30 09:55:17;;;;;;;;;;;14.80;99.90;;;;;;4162194;28;20376;-73
2024/03/30 09:57:19;;;;;;;12.25;2.85;;;14.90;99.90;;;;;;4162072;28;19967;-69
2024/03/30 09:59:20;;;;;;;9.80;2.60;;;14.90;99.90;;;;;;4160642;28;20041;-72
2024/03/30 10:01:21;;;;;;;23.67;3.60;;;15.00;99.90;;;;;;4157356;28;20030;-72
2024/03/30 10:03:22;;;;;;;24.38;3.10;;;15.10;99.90;;;;;;4161164;28;20085;-72
2024/03/30 10:05:22;;;;;;;13.80;3.00;;;15.10;99.90;;;;;;4161133;28;20077;-72
2024/03/30 10:07:53;;;;;;;19.17;2.83;;;15.20;99.90;;;;;;4160481;28;20038;-72
2024/03/30 10:10:00;;;;;;;14.30;2.83;;;15.30;99.90;;;;;;4161402;28;20029;-72
2024/03/30 10:12:15;;;;;;;14.18;2.38;;;15.30;99.90;;;;;;4161411;28;20057;-72
2024/03/30 10:14:33;;;;;;;13.52;3.03;;;15.40;99.90;;;;;;4161765;28;20036;-72
2024/03/30 10:16:34;;;;;;;11.98;2.63;;;15.50;99.90;;;;;;4159437;28;20054;-71
2024/03/30 10:18:34;;;;;;;12.38;2.38;;;15.50;99.90;;;;;;4161875;28;20040;-72
2024/03/30 10:20:35;;;;;;;14.75;3.42;;;15.60;99.90;;;;;;4161156;28;20026;-71
2024/03/30 10:22:36;;;;;;;14.55;2.72;;;15.70;99.90;;;;;;4162099;28;20099;-72
2024/03/30 10:24:37;;;;;;;27.13;3.25;;;15.80;99.90;;;;;;4162110;28;20083;-72
2024/03/30 10:26:41;;;;;;;18.75;4.15;;;15.90;99.90;;;;;;4161122;28;20065;-71
2024/03/30 10:28:42;;;;;;;33.08;3.35;;;15.90;99.90;;;;;;4160362;28;20394;-71
2024/03/30 10:30:44;;;;;;;20.65;4.10;;;16.00;99.90;;;;;;4160456;28;20040;-73
2024/03/30 10:32:45;;;;;;;22.98;4.50;;;16.10;99.90;;;;;;4161714;28;20033;-72
2024/03/30 10:34:46;;;;;;;21.10;3.97;;;16.10;99.90;;;;;;4160463;28;20041;-72